createdAt,value
2022-08-21T00:00:00.596Z,85.48
2022-08-21T00:03:06.166Z,85.58
2022-08-21T00:06:07.873Z,85.71
2022-08-21T00:09:15.834Z,85.64
2022-08-21T00:12:17.446Z,85.34
2022-08-21T00:15:27.414Z,85.01
2022-08-21T00:18:29.147Z,85.43
2022-08-21T00:21:30.824Z,85.52
2022-08-21T00:24:32.407Z,85.51
2022-08-21T00:27:34.695Z,85.65
2022-08-21T00:30:36.607Z,85.17
2022-08-21T00:33:38.786Z,85.36
2022-08-21T00:36:40.940Z,85.69
2022-08-21T00:39:42.666Z,85.78
2022-08-21T00:42:44.935Z,86.28
2022-08-21T00:45:56.802Z,86.57
2022-08-21T00:48:59.449Z,86.94
2022-08-21T00:52:02.387Z,87.48
2022-08-21T00:55:07.805Z,87.33
2022-08-21T00:58:13.480Z,87.35
2022-08-21T01:01:15.663Z,87.35
2022-08-21T01:04:17.980Z,87.06
2022-08-21T01:07:20.976Z,87.51
2022-08-21T01:10:24.743Z,87.78
2022-08-21T01:13:28.529Z,88.03
2022-08-21T01:16:30.307Z,88.35
2022-08-21T01:19:32.320Z,88.51
2022-08-21T01:22:34.004Z,88.20
2022-08-21T01:25:36.221Z,88.52
2022-08-21T01:28:42.930Z,88.49
2022-08-21T01:31:45.103Z,88.49
2022-08-21T01:34:48.766Z,88.68
2022-08-21T01:37:50.467Z,88.89
2022-08-21T01:40:52.308Z,89.09
2022-08-21T01:43:53.914Z,89.26
2022-08-21T01:46:57.109Z,89.54
2022-08-21T01:49:58.794Z,89.76
2022-08-21T01:53:00.581Z,89.97
2022-08-21T01:56:03.004Z,90.11
2022-08-21T01:59:04.773Z,90.00
2022-08-21T02:02:06.731Z,90.42
2022-08-21T02:05:10.435Z,90.22
2022-08-21T02:08:12.365Z,90.45
2022-08-21T02:11:14.174Z,90.74
2022-08-21T02:14:32.406Z,90.65
2022-08-21T02:17:46.792Z,90.84
2022-08-21T02:20:55.792Z,90.88
2022-08-21T02:23:58.616Z,90.90
2022-08-21T02:27:00.273Z,90.57
2022-08-21T02:30:02.001Z,90.99
2022-08-21T02:33:03.661Z,91.05
2022-08-21T02:36:05.810Z,90.80
2022-08-21T02:39:07.419Z,91.07
2022-08-21T02:42:09.073Z,90.73
2022-08-21T02:45:12.182Z,90.60
2022-08-21T02:48:22.314Z,90.93
2022-08-21T02:51:24.011Z,90.99
2022-08-21T02:54:25.677Z,91.07
2022-08-21T02:57:27.384Z,91.22
2022-08-21T03:00:30.550Z,91.34
2022-08-21T03:03:32.207Z,91.52
2022-08-21T03:06:34.690Z,91.43
2022-08-21T03:09:36.280Z,91.40
2022-08-21T03:12:37.949Z,91.46
2022-08-21T03:15:41.010Z,91.16
2022-08-21T03:18:42.702Z,91.16
2022-08-21T03:21:44.416Z,91.38
2022-08-21T03:24:46.214Z,91.36
2022-08-21T03:27:49.854Z,91.56
2022-08-21T03:30:55.116Z,91.76
2022-08-21T03:33:57.491Z,91.98
2022-08-21T03:36:59.511Z,92.26
2022-08-21T03:40:01.267Z,92.14
2022-08-21T03:43:02.948Z,92.25
2022-08-21T03:46:06.261Z,92.28
2022-08-21T03:49:07.942Z,92.57
2022-08-21T03:52:09.910Z,92.55
2022-08-21T03:55:11.620Z,91.68
2022-08-21T03:58:16.155Z,91.61
2022-08-21T04:01:18.735Z,91.44
2022-08-21T04:04:20.413Z,91.86
2022-08-21T04:07:21.995Z,91.53
2022-08-21T04:10:25.450Z,91.86
2022-08-21T04:13:29.101Z,92.12
2022-08-21T04:16:31.848Z,92.15
2022-08-21T04:19:33.513Z,92.25
2022-08-21T04:22:35.180Z,92.36
2022-08-21T04:25:36.992Z,92.73
2022-08-21T04:28:38.735Z,93.03
2022-08-21T04:31:40.393Z,92.70
2022-08-21T04:34:41.990Z,92.84
2022-08-21T04:37:43.613Z,92.93
2022-08-21T04:40:45.535Z,93.05
2022-08-21T04:43:47.518Z,92.28
2022-08-21T04:46:49.126Z,92.28
2022-08-21T04:49:51.909Z,92.18
2022-08-21T04:52:54.381Z,91.95
2022-08-21T04:56:01.637Z,91.64
2022-08-21T04:59:07.315Z,91.56
2022-08-21T05:02:10.357Z,91.46
2022-08-21T05:05:12.246Z,91.05
2022-08-21T05:08:18.865Z,90.53
2022-08-21T05:11:21.092Z,89.24
2022-08-21T05:14:22.971Z,87.49
2022-08-21T05:17:24.598Z,85.96
2022-08-21T05:20:26.289Z,84.90
2022-08-21T05:23:27.935Z,83.84
2022-08-21T05:26:29.587Z,83.59
2022-08-21T05:29:32.367Z,82.88
2022-08-21T05:32:35.057Z,81.82
2022-08-21T05:35:38.486Z,81.49
2022-08-21T05:38:40.237Z,81.09
2022-08-21T05:41:41.890Z,81.28
2022-08-21T05:44:43.941Z,80.39
2022-08-21T05:47:47.043Z,80.73
2022-08-21T05:50:50.305Z,80.24
2022-08-21T05:53:51.985Z,80.18
2022-08-21T05:56:53.831Z,79.77
2022-08-21T05:59:55.431Z,79.61
2022-08-21T06:02:57.186Z,80.06
2022-08-21T06:05:59.419Z,80.49
2022-08-21T06:09:01.034Z,80.62
2022-08-21T06:12:11.837Z,81.58
2022-08-21T06:15:13.466Z,81.24
2022-08-21T06:18:15.716Z,80.48
2022-08-21T06:21:17.489Z,80.72
2022-08-21T06:24:19.122Z,80.54
2022-08-21T06:27:24.750Z,78.50
2022-08-21T06:30:28.437Z,78.56
2022-08-21T06:33:32.731Z,77.63
2022-08-21T06:36:34.836Z,77.40
2022-08-21T06:39:36.540Z,77.02
2022-08-21T06:42:38.236Z,76.53
2022-08-21T06:45:43.534Z,70.20
2022-08-21T06:48:45.134Z,64.05
2022-08-21T06:51:46.710Z,63.00
2022-08-21T06:54:48.392Z,62.83
2022-08-21T06:57:52.391Z,63.79
2022-08-21T07:00:58.701Z,65.15
2022-08-21T07:04:03.279Z,66.59
2022-08-21T07:07:04.941Z,67.00
2022-08-21T07:10:06.816Z,67.15
2022-08-21T07:13:08.501Z,66.92
2022-08-21T07:16:10.093Z,66.71
2022-08-21T07:19:11.756Z,67.09
2022-08-21T07:22:17.187Z,67.00
2022-08-21T07:25:18.900Z,66.30
2022-08-21T07:28:20.627Z,66.17
2022-08-21T07:31:24.552Z,65.90
2022-08-21T07:34:26.189Z,65.78
2022-08-21T07:37:27.901Z,66.05
2022-08-21T07:40:29.527Z,66.31
2022-08-21T07:43:31.198Z,65.32
2022-08-21T07:46:32.932Z,64.49
2022-08-21T07:49:34.614Z,63.99
2022-08-21T07:52:36.200Z,65.37
2022-08-21T07:55:37.824Z,64.08
2022-08-21T07:58:39.508Z,63.67
2022-08-21T08:01:41.556Z,61.71
2022-08-21T08:04:50.918Z,61.46
2022-08-21T08:07:52.976Z,60.95
2022-08-21T08:10:58.040Z,61.45
2022-08-21T08:14:00.458Z,60.88
2022-08-21T08:17:03.376Z,60.77
2022-08-21T08:20:07.510Z,60.78
2022-08-21T08:23:14.071Z,60.21
2022-08-21T08:26:16.771Z,59.98
2022-08-21T08:29:18.338Z,60.27
2022-08-21T08:32:20.525Z,60.65
2022-08-21T08:35:24.164Z,60.44
2022-08-21T08:38:26.458Z,60.34
2022-08-21T08:41:30.833Z,58.01
2022-08-21T08:44:32.773Z,57.31
2022-08-21T08:47:39.741Z,59.33
2022-08-21T08:50:55.647Z,58.48
2022-08-21T08:54:03.829Z,58.14
2022-08-21T08:57:11.042Z,58.64
2022-08-21T09:00:16.659Z,57.45
2022-08-21T09:03:19.543Z,56.88
2022-08-21T09:06:30.368Z,57.43
2022-08-21T09:10:01.450Z,56.81
2022-08-21T09:13:16.456Z,57.24
2022-08-21T09:16:24.244Z,55.72
2022-08-21T09:19:37.410Z,54.72
2022-08-21T09:23:03.047Z,55.62
2022-08-21T09:26:14.978Z,53.96
2022-08-21T09:29:21.373Z,54.00
2022-08-21T09:32:37.816Z,53.04
2022-08-21T09:35:51.867Z,52.11
2022-08-21T09:38:56.128Z,50.06
2022-08-21T09:42:07.381Z,49.56
2022-08-21T09:45:19.012Z,49.61
2022-08-21T09:48:27.150Z,50.12
2022-08-21T09:51:39.884Z,49.12
2022-08-21T09:54:42.175Z,48.24
2022-08-21T09:57:50.520Z,48.77
2022-08-21T10:01:01.743Z,49.63
2022-08-21T10:04:05.919Z,50.25
2022-08-21T10:07:13.677Z,49.72
2022-08-21T10:10:37.514Z,50.30
2022-08-21T10:13:46.089Z,48.81
2022-08-21T10:16:47.683Z,49.52
2022-08-21T10:20:01.896Z,49.56
2022-08-21T10:23:15.531Z,48.56
2022-08-21T10:26:44.881Z,48.48
2022-08-21T10:29:58.214Z,47.66
2022-08-21T10:33:21.632Z,47.39
2022-08-21T10:36:40.522Z,48.15
2022-08-21T10:39:57.346Z,47.82
2022-08-21T10:43:26.037Z,49.22
2022-08-21T10:46:47.565Z,49.86
2022-08-21T10:50:24.291Z,46.21
2022-08-21T10:53:46.301Z,43.69
2022-08-21T10:56:50.620Z,46.30
2022-08-21T11:00:00.818Z,47.41
2022-08-21T11:03:11.838Z,48.83
2022-08-21T11:06:24.970Z,47.39
2022-08-21T11:09:27.747Z,47.19
2022-08-21T11:12:40.650Z,46.96
2022-08-21T11:15:53.895Z,47.50
2022-08-21T11:19:08.827Z,48.32
2022-08-21T11:22:27.633Z,46.48
2022-08-21T11:25:41.066Z,47.87
2022-08-21T11:29:19.614Z,48.33
2022-08-21T11:32:24.220Z,48.16
2022-08-21T11:35:50.653Z,46.23
2022-08-21T11:39:02.497Z,46.41
2022-08-21T11:42:29.679Z,45.76
2022-08-21T11:45:45.880Z,45.29
2022-08-21T11:48:50.379Z,44.59
2022-08-21T11:52:21.262Z,45.00
2022-08-21T11:55:28.888Z,46.76
2022-08-21T11:58:45.241Z,44.77
2022-08-21T12:01:47.346Z,45.68
2022-08-21T12:05:00.623Z,44.39
2022-08-21T12:08:10.091Z,45.70
2022-08-21T12:11:30.564Z,44.62
2022-08-21T12:14:45.944Z,44.50
2022-08-21T12:18:07.473Z,45.83
2022-08-21T12:21:22.087Z,46.11
2022-08-21T12:24:45.262Z,44.73
2022-08-21T12:27:52.827Z,45.04
2022-08-21T12:30:57.957Z,45.45
2022-08-21T12:34:05.463Z,46.75
2022-08-21T12:37:26.861Z,47.38
2022-08-21T12:40:50.048Z,47.67
2022-08-21T12:44:05.125Z,48.71
2022-08-21T12:47:15.944Z,47.67
2022-08-21T12:50:29.832Z,46.91
2022-08-21T12:53:45.206Z,46.39
2022-08-21T12:56:57.958Z,46.67
2022-08-21T13:00:01.944Z,45.20
2022-08-21T13:03:04.301Z,46.09
2022-08-21T13:06:07.692Z,45.86
2022-08-21T13:09:16.362Z,46.80
2022-08-21T13:12:21.309Z,47.84
2022-08-21T13:15:33.456Z,47.19
2022-08-21T13:18:40.354Z,46.06
2022-08-21T13:21:45.857Z,44.23
2022-08-21T13:24:49.427Z,43.62
2022-08-21T13:28:12.575Z,43.87
2022-08-21T13:31:23.549Z,45.11
2022-08-21T13:34:30.440Z,45.41
2022-08-21T13:37:32.183Z,45.93
2022-08-21T13:40:43.795Z,44.29
2022-08-21T13:43:49.841Z,45.19
2022-08-21T13:46:51.625Z,45.88
2022-08-21T13:49:58.956Z,46.30
2022-08-21T13:53:04.243Z,45.88
2022-08-21T13:56:06.112Z,48.09
2022-08-21T13:59:07.818Z,47.43
2022-08-21T14:02:12.455Z,45.67
2022-08-21T14:05:22.219Z,44.42
2022-08-21T14:08:40.990Z,45.04
2022-08-21T14:11:42.745Z,44.16
2022-08-21T14:14:45.640Z,42.88
2022-08-21T14:17:47.355Z,43.65
2022-08-21T14:20:50.244Z,43.40
2022-08-21T14:24:24.395Z,42.75
2022-08-21T14:27:26.484Z,41.75
2022-08-21T14:30:34.355Z,42.33
2022-08-21T14:33:36.630Z,42.34
2022-08-21T14:36:38.426Z,41.45
2022-08-21T14:39:44.655Z,42.39
2022-08-21T14:42:47.856Z,43.31
2022-08-21T14:45:49.625Z,43.86
2022-08-21T14:48:51.911Z,44.95
2022-08-21T14:51:57.885Z,45.34
2022-08-21T14:54:59.698Z,43.37
2022-08-21T14:58:01.593Z,44.90
2022-08-21T15:01:04.923Z,44.91
2022-08-21T15:04:06.797Z,45.18
2022-08-21T15:07:08.602Z,42.11
2022-08-21T15:10:10.338Z,42.96
2022-08-21T15:13:12.495Z,43.95
2022-08-21T15:16:14.464Z,44.60
2022-08-21T15:19:16.131Z,44.74
2022-08-21T15:22:19.066Z,45.08
2022-08-21T15:25:29.846Z,44.99
2022-08-21T15:28:31.848Z,45.83
2022-08-21T15:31:34.110Z,45.41
2022-08-21T15:34:35.723Z,44.73
2022-08-21T15:37:37.377Z,45.91
2022-08-21T15:40:39.889Z,46.21
2022-08-21T15:43:52.463Z,46.21
2022-08-21T15:46:54.350Z,46.09
2022-08-21T15:49:55.971Z,46.49
2022-08-21T15:52:57.602Z,45.81
2022-08-21T15:56:02.988Z,46.82
2022-08-21T15:59:13.573Z,46.93
2022-08-21T16:02:33.769Z,44.68
2022-08-21T16:05:35.440Z,45.39
2022-08-21T16:08:37.104Z,44.99
2022-08-21T16:11:39.750Z,44.96
2022-08-21T16:14:41.423Z,46.22
2022-08-21T16:17:48.659Z,46.35
2022-08-21T16:20:50.322Z,46.26
2022-08-21T16:23:52.039Z,46.52
2022-08-21T16:26:58.084Z,47.23
2022-08-21T16:30:01.173Z,47.28
2022-08-21T16:33:05.159Z,46.83
2022-08-21T16:36:07.990Z,47.13
2022-08-21T16:39:09.865Z,46.68
2022-08-21T16:42:16.098Z,46.62
2022-08-21T16:45:22.297Z,46.73
2022-08-21T16:48:24.798Z,47.79
2022-08-21T16:51:26.455Z,47.86
2022-08-21T16:54:30.848Z,47.86
2022-08-21T16:57:32.750Z,48.01
2022-08-21T17:00:35.402Z,48.31
2022-08-21T17:03:42.574Z,49.53
2022-08-21T17:06:44.249Z,49.74
2022-08-21T17:09:45.901Z,50.63
2022-08-21T17:12:55.994Z,51.43
2022-08-21T17:15:57.844Z,52.37
2022-08-21T17:18:59.475Z,52.58
2022-08-21T17:22:01.326Z,52.68
2022-08-21T17:25:03.339Z,52.91
2022-08-21T17:28:05.098Z,52.54
2022-08-21T17:31:10.578Z,52.77
2022-08-21T17:34:13.016Z,52.86
2022-08-21T17:37:14.913Z,52.76
2022-08-21T17:40:17.201Z,53.10
2022-08-21T17:43:19.209Z,52.96
2022-08-21T17:46:24.271Z,53.53
2022-08-21T17:49:25.942Z,54.73
2022-08-21T17:52:27.552Z,55.74
2022-08-21T17:55:30.267Z,56.52
2022-08-21T17:58:32.520Z,57.14
2022-08-21T18:01:42.508Z,57.18
2022-08-21T18:04:44.171Z,57.33
2022-08-21T18:07:45.949Z,57.42
2022-08-21T18:10:50.493Z,58.18
2022-08-21T18:13:54.120Z,58.75
2022-08-21T18:16:56.325Z,60.11
2022-08-21T18:19:59.591Z,60.82
2022-08-21T18:23:01.284Z,61.18
2022-08-21T18:26:03.057Z,60.89
2022-08-21T18:29:09.928Z,61.04
2022-08-21T18:32:30.289Z,60.73
2022-08-21T18:35:33.556Z,60.94
2022-08-21T18:38:35.828Z,60.68
2022-08-21T18:41:37.562Z,61.33
2022-08-21T18:44:41.274Z,61.30
2022-08-21T18:47:48.073Z,61.52
2022-08-21T18:50:50.358Z,61.25
2022-08-21T18:53:53.822Z,61.14
2022-08-21T18:56:57.827Z,61.41
2022-08-21T18:59:59.633Z,61.62
2022-08-21T19:06:24.548Z,61.08
2022-08-21T19:09:26.179Z,61.22
2022-08-21T19:12:29.667Z,61.93
2022-08-21T19:15:35.461Z,62.28
2022-08-21T19:18:41.216Z,62.41
2022-08-21T19:21:44.621Z,63.12
2022-08-21T19:24:49.692Z,63.76
2022-08-21T19:27:52.097Z,64.17
2022-08-21T19:31:05.286Z,63.99
2022-08-21T19:34:15.845Z,64.48
2022-08-21T19:37:18.315Z,64.17
2022-08-21T19:40:22.271Z,65.07
2022-08-21T19:43:29.185Z,65.15
2022-08-21T19:46:36.271Z,65.37
2022-08-21T19:49:41.780Z,65.79
2022-08-21T19:52:51.212Z,66.05
2022-08-21T19:55:53.278Z,66.83
2022-08-21T19:58:55.982Z,67.83
2022-08-21T20:01:57.590Z,68.03
2022-08-21T20:04:59.205Z,68.33
2022-08-21T20:08:01.028Z,68.82
2022-08-21T20:11:04.221Z,69.08
2022-08-21T20:14:09.187Z,69.63
2022-08-21T20:17:13.967Z,69.64
2022-08-21T20:20:15.662Z,69.84
2022-08-21T20:23:18.454Z,70.10
2022-08-21T20:26:32.439Z,70.16
2022-08-21T20:29:39.217Z,70.44
2022-08-21T20:32:41.136Z,70.82
2022-08-21T20:35:48.497Z,70.90
2022-08-21T20:38:53.749Z,71.15
2022-08-21T20:41:56.565Z,71.35
2022-08-21T20:44:58.478Z,71.40
2022-08-21T20:48:48.883Z,71.54
2022-08-21T20:51:58.669Z,71.78
2022-08-21T20:55:09.901Z,71.74
2022-08-21T20:58:24.349Z,71.82
2022-08-21T21:01:34.281Z,71.90
2022-08-21T21:05:10.502Z,71.90
2022-08-21T21:08:30.019Z,72.17
2022-08-21T21:15:05.333Z,73.00
2022-08-21T21:18:13.094Z,73.33
2022-08-21T21:21:32.858Z,73.75
2022-08-21T21:24:54.469Z,73.63
2022-08-21T21:28:26.234Z,73.61
2022-08-21T21:31:28.675Z,73.85
2022-08-21T21:34:35.640Z,73.86
2022-08-21T21:37:37.122Z,74.12
2022-08-21T21:41:03.030Z,74.66
2022-08-21T21:44:16.752Z,75.14
2022-08-21T21:47:18.280Z,75.66
2022-08-21T21:50:46.192Z,75.82
2022-08-21T21:54:09.112Z,75.81
2022-08-21T21:57:39.816Z,75.71
2022-08-21T22:00:52.303Z,76.68
2022-08-21T22:03:54.491Z,76.83
2022-08-21T22:07:28.619Z,77.01
2022-08-21T22:10:48.103Z,77.32
2022-08-21T22:14:15.372Z,77.65
2022-08-21T22:17:26.059Z,77.54
2022-08-21T22:20:46.805Z,77.43
2022-08-21T22:23:52.948Z,77.15
2022-08-21T22:27:01.930Z,77.25
2022-08-21T22:30:09.908Z,77.79
2022-08-21T22:33:20.141Z,77.89
2022-08-21T22:36:22.652Z,78.09
2022-08-21T22:43:02.460Z,78.73
2022-08-21T22:46:06.791Z,78.71
2022-08-21T22:49:25.184Z,79.45
2022-08-21T22:52:37.645Z,79.72
2022-08-21T22:55:52.579Z,79.64
2022-08-21T22:59:01.693Z,79.32
2022-08-21T23:02:28.866Z,79.20
2022-08-21T23:05:30.523Z,78.67
2022-08-21T23:08:36.487Z,78.92
2022-08-21T23:11:42.735Z,79.16
2022-08-21T23:14:44.551Z,78.89
2022-08-21T23:18:01.951Z,78.78
2022-08-21T23:21:26.029Z,79.26
2022-08-21T23:24:49.737Z,79.35
2022-08-21T23:28:01.206Z,79.47
2022-08-21T23:31:14.521Z,79.35
2022-08-21T23:34:50.010Z,79.35
2022-08-21T23:38:21.806Z,79.83
2022-08-21T23:41:34.346Z,80.25
2022-08-21T23:45:13.967Z,80.33
2022-08-21T23:48:42.361Z,81.07
2022-08-21T23:52:12.176Z,81.48
2022-08-21T23:55:41.822Z,81.43
2022-08-21T23:58:59.719Z,81.50
